createdAt,value
2017-08-24T00:01:51.528Z,78.10
2017-08-24T00:04:19.049Z,78.10
2017-08-24T00:06:46.584Z,78.40
2017-08-24T00:09:14.114Z,77.90
2017-08-24T00:11:41.654Z,77.70
2017-08-24T00:14:09.165Z,77.60
2017-08-24T00:16:37.461Z,77.70
2017-08-24T00:19:04.976Z,77.70
2017-08-24T00:21:32.905Z,78.40
2017-08-24T00:24:00.420Z,78.10
2017-08-24T00:26:27.950Z,78.30
2017-08-24T00:28:55.458Z,78.00
2017-08-24T00:31:22.996Z,78.40
2017-08-24T00:33:50.520Z,79.10
2017-08-24T00:36:18.065Z,78.90
2017-08-24T00:38:45.595Z,79.40
2017-08-24T00:41:13.109Z,79.50
2017-08-24T00:43:40.640Z,79.60
2017-08-24T00:46:08.157Z,79.50
2017-08-24T00:48:35.692Z,79.50
2017-08-24T00:51:03.212Z,79.40
2017-08-24T00:53:30.736Z,79.30
2017-08-24T00:55:58.244Z,79.40
2017-08-24T00:58:25.785Z,79.40
2017-08-24T01:00:53.316Z,79.30
2017-08-24T01:03:21.424Z,79.30
2017-08-24T01:05:48.960Z,79.20
2017-08-24T01:08:16.494Z,79.30
2017-08-24T01:10:44.043Z,79.40
2017-08-24T01:13:11.548Z,79.40
2017-08-24T01:15:39.849Z,79.00
2017-08-24T01:18:07.376Z,79.10
2017-08-24T01:20:34.922Z,78.50
2017-08-24T01:23:02.445Z,78.10
2017-08-24T01:25:29.968Z,78.10
2017-08-24T01:27:57.497Z,77.30
2017-08-24T01:30:25.014Z,77.60
2017-08-24T01:32:52.558Z,77.00
2017-08-24T01:35:20.074Z,77.00
2017-08-24T01:37:47.609Z,76.90
2017-08-24T01:40:15.118Z,77.20
2017-08-24T01:42:42.654Z,76.80
2017-08-24T01:45:10.168Z,76.90
2017-08-24T01:47:37.701Z,75.70
2017-08-24T01:50:05.220Z,76.00
2017-08-24T01:52:32.838Z,76.00
2017-08-24T01:55:00.339Z,75.40
2017-08-24T01:57:27.888Z,75.30
2017-08-24T01:59:55.409Z,75.40
2017-08-24T02:02:22.916Z,75.20
2017-08-24T02:04:50.449Z,74.80
2017-08-24T02:07:17.952Z,75.80
2017-08-24T02:09:45.488Z,75.20
2017-08-24T02:12:12.994Z,75.40
2017-08-24T02:14:40.540Z,76.00
2017-08-24T02:17:08.040Z,76.10
2017-08-24T02:19:35.568Z,76.00
2017-08-24T02:22:03.084Z,75.90
2017-08-24T02:24:30.609Z,75.80
2017-08-24T02:26:58.111Z,75.90
2017-08-24T02:29:25.644Z,76.40
2017-08-24T02:31:53.148Z,76.50
2017-08-24T02:34:20.674Z,76.40
2017-08-24T02:36:48.192Z,76.60
2017-08-24T02:39:15.717Z,77.00
2017-08-24T02:41:43.224Z,77.00
2017-08-24T02:44:10.752Z,77.00
2017-08-24T02:46:38.260Z,77.50
2017-08-24T02:49:06.736Z,77.40
2017-08-24T02:51:34.264Z,77.60
2017-08-24T02:54:01.848Z,77.30
2017-08-24T02:56:29.368Z,77.40
2017-08-24T02:58:56.880Z,77.50
2017-08-24T03:01:24.413Z,77.40
2017-08-24T03:03:51.925Z,77.60
2017-08-24T03:06:19.462Z,77.50
2017-08-24T03:08:46.997Z,77.60
2017-08-24T03:11:14.499Z,77.50
2017-08-24T03:13:42.025Z,77.30
2017-08-24T03:16:09.549Z,77.40
2017-08-24T03:18:37.071Z,77.60
2017-08-24T03:21:04.611Z,77.90
2017-08-24T03:23:32.139Z,77.30
2017-08-24T03:25:59.673Z,77.10
2017-08-24T03:28:27.180Z,77.10
2017-08-24T03:30:54.706Z,77.20
2017-08-24T03:33:22.981Z,77.30
2017-08-24T03:35:50.517Z,77.50
2017-08-24T03:38:18.028Z,77.50
2017-08-24T03:40:45.559Z,77.50
2017-08-24T03:43:13.068Z,77.50
2017-08-24T03:45:40.612Z,77.40
2017-08-24T03:48:08.118Z,77.50
2017-08-24T03:50:35.652Z,77.90
2017-08-24T03:53:03.156Z,77.60
2017-08-24T03:55:30.684Z,77.50
2017-08-24T03:57:58.220Z,77.40
2017-08-24T04:00:26.504Z,77.80
2017-08-24T04:02:54.809Z,78.40
2017-08-24T04:05:22.321Z,78.30
2017-08-24T04:07:49.858Z,78.80
2017-08-24T04:10:17.369Z,79.10
2017-08-24T04:12:44.905Z,78.90
2017-08-24T04:15:12.417Z,78.90
2017-08-24T04:17:39.977Z,78.90
2017-08-24T04:20:08.282Z,78.80
2017-08-24T04:22:35.812Z,78.90
2017-08-24T04:25:03.337Z,78.80
2017-08-24T04:27:30.864Z,78.80
2017-08-24T04:29:58.369Z,78.90
2017-08-24T04:32:25.900Z,78.80
2017-08-24T04:34:53.425Z,78.90
2017-08-24T04:37:20.957Z,78.90
2017-08-24T04:39:48.468Z,78.80
2017-08-24T04:42:16.000Z,79.00
2017-08-24T04:44:43.512Z,79.00
2017-08-24T04:47:11.052Z,78.10
2017-08-24T04:49:38.565Z,77.60
2017-08-24T04:52:06.118Z,76.60
2017-08-24T04:54:33.656Z,76.00
2017-08-24T04:57:01.161Z,75.40
2017-08-24T04:59:28.697Z,74.30
2017-08-24T05:01:56.204Z,73.20
2017-08-24T05:04:23.733Z,72.10
2017-08-24T05:06:51.241Z,70.80
2017-08-24T05:09:18.768Z,71.00
2017-08-24T05:11:46.284Z,69.40
2017-08-24T05:14:13.823Z,68.10
2017-08-24T05:16:41.344Z,67.40
2017-08-24T05:19:08.881Z,66.80
2017-08-24T05:21:36.407Z,66.10
2017-08-24T05:24:03.948Z,65.30
2017-08-24T05:26:31.457Z,64.30
2017-08-24T05:28:58.989Z,63.60
2017-08-24T05:31:26.526Z,62.60
2017-08-24T05:33:54.051Z,62.30
2017-08-24T05:36:21.589Z,62.00
2017-08-24T05:38:49.107Z,59.30
2017-08-24T05:41:16.645Z,50.90
2017-08-24T05:43:44.157Z,42.90
2017-08-24T05:46:11.689Z,36.50
2017-08-24T05:48:39.206Z,33.50
2017-08-24T05:51:06.741Z,32.20
2017-08-24T05:53:34.261Z,31.10
2017-08-24T05:56:01.792Z,30.30
2017-08-24T05:58:29.303Z,28.60
2017-08-24T06:00:56.849Z,26.40
2017-08-24T06:03:24.382Z,25.00
2017-08-24T06:05:51.916Z,24.10
2017-08-24T06:08:19.421Z,23.50
2017-08-24T06:10:46.945Z,22.40
2017-08-24T06:13:14.457Z,22.90
2017-08-24T06:15:41.985Z,23.20
2017-08-24T06:18:09.523Z,23.30
2017-08-24T06:20:37.064Z,25.60
2017-08-24T06:23:04.597Z,29.40
2017-08-24T06:25:32.116Z,33.00
2017-08-24T06:27:59.658Z,35.80
2017-08-24T06:30:27.172Z,36.40
2017-08-24T06:32:54.680Z,36.40
2017-08-24T06:35:22.211Z,36.00
2017-08-24T06:37:49.755Z,35.40
2017-08-24T06:40:17.292Z,37.00
2017-08-24T06:42:44.824Z,36.20
2017-08-24T06:45:12.357Z,37.00
2017-08-24T06:47:39.881Z,35.10
2017-08-24T06:50:07.431Z,34.10
2017-08-24T06:52:34.932Z,32.40
2017-08-24T06:55:02.514Z,32.20
2017-08-24T06:57:30.047Z,33.70
2017-08-24T06:59:57.645Z,33.70
2017-08-24T07:02:25.170Z,34.00
2017-08-24T07:04:52.679Z,33.50
2017-08-24T07:07:20.207Z,34.10
2017-08-24T07:09:47.752Z,33.60
2017-08-24T07:12:15.292Z,35.20
2017-08-24T07:14:42.804Z,34.40
2017-08-24T07:17:10.341Z,35.40
2017-08-24T07:19:37.856Z,35.10
2017-08-24T07:22:05.425Z,34.50
2017-08-24T07:24:33.521Z,35.90
2017-08-24T07:27:01.065Z,36.90
2017-08-24T07:29:28.576Z,38.90
2017-08-24T07:31:56.117Z,37.40
2017-08-24T07:34:23.640Z,37.30
2017-08-24T07:36:51.184Z,38.40
2017-08-24T07:39:18.705Z,38.40
2017-08-24T07:41:46.259Z,37.50
2017-08-24T07:44:13.776Z,37.50
2017-08-24T07:46:41.296Z,36.60
2017-08-24T07:49:08.849Z,35.70
2017-08-24T07:51:36.361Z,33.90
2017-08-24T07:54:03.913Z,33.50
2017-08-24T07:56:31.440Z,32.70
2017-08-24T07:58:59.021Z,33.50
2017-08-24T08:01:26.542Z,33.90
2017-08-24T08:03:54.069Z,33.10
2017-08-24T08:06:21.589Z,33.30
2017-08-24T08:08:49.124Z,34.20
2017-08-24T08:11:16.641Z,34.30
2017-08-24T08:13:44.222Z,33.60
2017-08-24T08:16:11.749Z,33.90
2017-08-24T08:18:39.311Z,33.80
2017-08-24T08:21:06.850Z,33.10
2017-08-24T08:23:34.357Z,33.10
2017-08-24T08:26:01.884Z,32.20
2017-08-24T08:28:29.398Z,31.50
2017-08-24T08:30:56.929Z,32.30
2017-08-24T08:33:24.439Z,32.40
2017-08-24T08:35:51.971Z,33.10
2017-08-24T08:38:19.477Z,32.60
2017-08-24T08:40:47.012Z,31.80
2017-08-24T08:43:14.523Z,31.40
2017-08-24T08:45:42.064Z,31.30
2017-08-24T08:48:09.600Z,31.80
2017-08-24T08:50:37.139Z,31.00
2017-08-24T08:53:04.656Z,30.40
2017-08-24T08:55:32.156Z,30.70
2017-08-24T08:58:00.536Z,30.10
2017-08-24T09:00:28.061Z,31.00
2017-08-24T09:02:55.596Z,30.60
2017-08-24T09:05:23.114Z,31.00
2017-08-24T09:07:50.644Z,29.60
2017-08-24T09:10:18.167Z,29.70
2017-08-24T09:12:45.713Z,29.80
2017-08-24T09:15:13.220Z,29.50
2017-08-24T09:17:40.758Z,29.80
2017-08-24T09:20:08.263Z,29.00
2017-08-24T09:22:35.798Z,28.10
2017-08-24T09:25:03.304Z,28.60
2017-08-24T09:27:30.832Z,28.60
2017-08-24T09:29:58.353Z,29.80
2017-08-24T09:32:25.868Z,31.60
2017-08-24T09:34:53.409Z,31.30
2017-08-24T09:37:20.922Z,31.20
2017-08-24T09:39:48.465Z,30.00
2017-08-24T09:42:15.985Z,28.90
2017-08-24T09:44:43.521Z,28.60
2017-08-24T09:47:11.041Z,28.90
2017-08-24T09:49:38.624Z,28.50
2017-08-24T09:52:06.143Z,30.30
2017-08-24T09:54:33.677Z,31.20
2017-08-24T09:57:01.196Z,31.60
2017-08-24T09:59:28.733Z,30.70
2017-08-24T10:01:56.245Z,30.00
2017-08-24T10:04:23.772Z,28.10
2017-08-24T10:06:51.275Z,27.40
2017-08-24T10:09:18.891Z,27.70
2017-08-24T10:11:46.415Z,26.30
2017-08-24T10:14:13.951Z,25.40
2017-08-24T10:16:41.505Z,25.20
2017-08-24T10:19:09.063Z,26.10
2017-08-24T10:21:36.630Z,27.30
2017-08-24T10:24:04.158Z,28.20
2017-08-24T10:26:31.691Z,30.10
2017-08-24T10:28:59.225Z,28.40
2017-08-24T10:31:26.839Z,28.30
2017-08-24T10:33:54.310Z,28.10
2017-08-24T10:36:21.879Z,26.80
2017-08-24T10:38:49.396Z,28.00
2017-08-24T10:41:16.937Z,28.90
2017-08-24T10:43:44.455Z,27.90
2017-08-24T10:46:11.965Z,28.30
2017-08-24T10:48:39.496Z,28.50
2017-08-24T10:51:07.015Z,28.20
2017-08-24T10:53:34.557Z,29.80
2017-08-24T10:56:02.059Z,30.20
2017-08-24T10:58:29.591Z,29.40
2017-08-24T11:00:57.186Z,29.10
2017-08-24T11:03:25.487Z,30.30
2017-08-24T11:05:52.995Z,29.70
2017-08-24T11:08:20.549Z,30.00
2017-08-24T11:10:48.052Z,30.10
2017-08-24T11:13:15.598Z,29.90
2017-08-24T11:15:43.103Z,28.20
2017-08-24T11:18:10.636Z,26.50
2017-08-24T11:20:38.140Z,25.90
2017-08-24T11:23:05.663Z,26.20
2017-08-24T11:25:33.178Z,24.80
2017-08-24T11:28:00.797Z,24.40
2017-08-24T11:30:28.304Z,22.90
2017-08-24T11:32:56.602Z,23.20
2017-08-24T11:35:24.104Z,22.70
2017-08-24T11:37:51.640Z,22.70
2017-08-24T11:40:19.169Z,23.30
2017-08-24T11:42:46.701Z,24.30
2017-08-24T11:45:14.288Z,24.10
2017-08-24T11:47:41.796Z,24.30
2017-08-24T11:50:09.311Z,24.00
2017-08-24T11:52:36.817Z,23.90
2017-08-24T11:55:04.373Z,23.40
2017-08-24T11:57:31.952Z,24.30
2017-08-24T11:59:59.457Z,24.80
2017-08-24T12:02:26.992Z,24.50
2017-08-24T12:04:54.523Z,25.30
2017-08-24T12:07:22.041Z,25.50
2017-08-24T12:09:49.593Z,25.20
2017-08-24T12:12:17.100Z,24.50
2017-08-24T12:14:44.636Z,24.30
2017-08-24T12:17:12.153Z,25.00
2017-08-24T12:19:39.684Z,24.20
2017-08-24T12:22:07.189Z,25.30
2017-08-24T12:24:34.846Z,25.50
2017-08-24T12:27:02.369Z,25.30
2017-08-24T12:29:30.093Z,25.50
2017-08-24T12:31:57.615Z,25.80
2017-08-24T12:34:25.149Z,27.40
2017-08-24T12:36:52.657Z,26.60
2017-08-24T12:39:20.192Z,27.00
2017-08-24T12:41:48.461Z,27.70
2017-08-24T12:44:16.055Z,27.60
2017-08-24T12:46:43.584Z,27.90
2017-08-24T12:49:11.125Z,27.50
2017-08-24T12:51:38.631Z,27.70
2017-08-24T12:54:06.159Z,27.10
2017-08-24T12:56:33.682Z,27.70
2017-08-24T12:59:01.230Z,27.80
2017-08-24T13:01:28.806Z,28.10
2017-08-24T13:03:56.349Z,27.30
2017-08-24T13:06:23.910Z,27.50
2017-08-24T13:08:51.408Z,26.60
2017-08-24T13:11:18.931Z,27.10
2017-08-24T13:13:46.429Z,28.90
2017-08-24T13:16:13.968Z,29.10
2017-08-24T13:18:41.477Z,29.20
2017-08-24T13:21:09.002Z,29.40
2017-08-24T13:23:36.513Z,29.90
2017-08-24T13:26:04.041Z,31.40
2017-08-24T13:28:31.563Z,30.30
2017-08-24T13:30:59.776Z,29.60
2017-08-24T13:33:27.935Z,27.70
2017-08-24T13:35:56.061Z,28.60
2017-08-24T13:38:23.624Z,26.70
2017-08-24T13:40:51.174Z,26.10
2017-08-24T13:43:18.689Z,24.50
2017-08-24T13:45:46.263Z,24.00
2017-08-24T13:48:13.782Z,25.00
2017-08-24T13:50:41.326Z,27.40
2017-08-24T13:53:08.833Z,28.40
2017-08-24T13:55:36.382Z,29.70
2017-08-24T13:58:03.900Z,31.00
2017-08-24T14:00:31.415Z,30.60
2017-08-24T14:02:59.126Z,28.50
2017-08-24T14:05:26.697Z,27.80
2017-08-24T14:07:54.223Z,28.20
2017-08-24T14:10:21.732Z,28.30
2017-08-24T14:12:49.314Z,26.70
2017-08-24T14:15:16.828Z,26.20
2017-08-24T14:17:44.362Z,26.30
2017-08-24T14:20:11.884Z,25.80
2017-08-24T14:22:39.434Z,26.60
2017-08-24T14:25:07.009Z,26.90
2017-08-24T14:27:34.553Z,27.00
2017-08-24T14:30:02.071Z,26.70
2017-08-24T14:32:29.688Z,25.80
2017-08-24T14:34:57.208Z,26.40
2017-08-24T14:37:24.720Z,25.90
2017-08-24T14:39:52.251Z,26.00
2017-08-24T14:42:19.786Z,26.40
2017-08-24T14:44:47.321Z,25.90
2017-08-24T14:47:14.874Z,26.80
2017-08-24T14:49:42.377Z,27.20
2017-08-24T14:52:09.912Z,27.50
2017-08-24T14:54:38.209Z,29.80
2017-08-24T14:57:06.364Z,29.80
2017-08-24T14:59:33.977Z,29.60
2017-08-24T15:02:01.473Z,29.60
2017-08-24T15:04:28.996Z,28.60
2017-08-24T15:06:56.512Z,28.10
2017-08-24T15:09:24.050Z,27.50
2017-08-24T15:11:51.593Z,27.40
2017-08-24T15:14:19.112Z,27.90
2017-08-24T15:16:46.657Z,27.50
2017-08-24T15:19:14.209Z,26.60
2017-08-24T15:21:41.749Z,25.90
2017-08-24T15:24:09.277Z,25.80
2017-08-24T15:26:36.808Z,26.40
2017-08-24T15:29:04.337Z,26.70
2017-08-24T15:31:31.899Z,27.50
2017-08-24T15:33:59.419Z,28.20
2017-08-24T15:36:26.973Z,29.50
2017-08-24T15:38:54.480Z,31.20
2017-08-24T15:41:21.994Z,30.50
2017-08-24T15:43:49.579Z,30.60
2017-08-24T15:46:17.883Z,30.50
2017-08-24T15:48:45.445Z,30.60
2017-08-24T15:51:13.012Z,30.40
2017-08-24T15:53:40.564Z,30.00
2017-08-24T15:56:08.176Z,30.10
2017-08-24T15:58:35.740Z,30.70
2017-08-24T16:01:03.289Z,30.50
2017-08-24T16:03:30.809Z,31.60
2017-08-24T16:05:58.321Z,31.30
2017-08-24T16:08:26.079Z,31.70
2017-08-24T16:10:53.698Z,30.80
2017-08-24T16:13:21.230Z,30.90
2017-08-24T16:15:48.849Z,31.90
2017-08-24T16:18:16.393Z,32.30
2017-08-24T16:20:43.912Z,32.60
2017-08-24T16:23:11.434Z,32.70
2017-08-24T16:25:38.955Z,32.40
2017-08-24T16:28:06.461Z,31.70
2017-08-24T16:30:33.992Z,31.20
2017-08-24T16:33:01.527Z,31.60
2017-08-24T16:35:29.129Z,32.00
2017-08-24T16:37:57.180Z,31.90
2017-08-24T16:40:24.743Z,31.70
2017-08-24T16:42:52.254Z,31.40
2017-08-24T16:45:21.010Z,32.10
2017-08-24T16:47:48.610Z,32.40
2017-08-24T16:50:16.305Z,32.20
2017-08-24T16:52:43.828Z,32.70
2017-08-24T16:55:11.332Z,33.40
2017-08-24T16:57:38.877Z,33.40
2017-08-24T17:00:06.385Z,33.90
2017-08-24T17:02:33.920Z,34.30
2017-08-24T17:05:01.423Z,33.70
2017-08-24T17:07:28.941Z,34.20
2017-08-24T17:09:56.465Z,34.70
2017-08-24T17:12:24.012Z,36.00
2017-08-24T17:14:51.545Z,36.20
2017-08-24T17:17:19.049Z,36.90
2017-08-24T17:19:46.576Z,37.10
2017-08-24T17:22:14.099Z,37.00
2017-08-24T17:24:41.603Z,37.90
2017-08-24T17:27:09.133Z,38.00
2017-08-24T17:29:36.649Z,38.00
2017-08-24T17:32:04.181Z,38.40
2017-08-24T17:34:31.841Z,39.10
2017-08-24T17:36:59.372Z,39.90
2017-08-24T17:39:27.817Z,40.30
2017-08-24T17:41:55.348Z,40.20
2017-08-24T17:44:22.852Z,41.10
2017-08-24T17:46:50.419Z,41.10
2017-08-24T17:49:17.948Z,41.50
2017-08-24T17:51:45.473Z,42.00
2017-08-24T17:54:12.983Z,41.90
2017-08-24T17:56:40.520Z,42.80
2017-08-24T17:59:08.030Z,43.00
2017-08-24T18:01:35.608Z,43.40
2017-08-24T18:04:03.107Z,43.80
2017-08-24T18:06:30.627Z,44.70
2017-08-24T18:08:58.146Z,45.40
2017-08-24T18:11:25.685Z,45.30
2017-08-24T18:13:53.189Z,46.00
2017-08-24T18:16:20.733Z,46.00
2017-08-24T18:18:48.236Z,45.90
2017-08-24T18:21:15.744Z,46.80
2017-08-24T18:23:43.273Z,47.00
2017-08-24T18:26:10.833Z,47.20
2017-08-24T18:28:38.375Z,47.80
2017-08-24T18:31:06.029Z,48.20
2017-08-24T18:33:33.570Z,48.40
2017-08-24T18:36:01.092Z,48.30
2017-08-24T18:38:28.648Z,49.50
2017-08-24T18:40:56.332Z,49.80
2017-08-24T18:43:23.887Z,49.70
2017-08-24T18:45:51.487Z,50.40
2017-08-24T18:48:18.994Z,51.20
2017-08-24T18:50:46.777Z,51.50
2017-08-24T18:53:14.285Z,52.10
2017-08-24T18:55:41.882Z,51.90
2017-08-24T18:58:09.466Z,52.80
2017-08-24T19:00:37.032Z,52.80
2017-08-24T19:03:04.565Z,53.70
2017-08-24T19:05:32.096Z,53.70
2017-08-24T19:07:59.750Z,53.70
2017-08-24T19:10:27.265Z,53.90
2017-08-24T19:12:54.809Z,53.90
2017-08-24T19:15:22.475Z,53.90
2017-08-24T19:17:50.003Z,54.20
2017-08-24T19:20:17.525Z,53.70
2017-08-24T19:22:45.032Z,54.50
2017-08-24T19:25:13.481Z,53.90
2017-08-24T19:27:41.012Z,54.70
2017-08-24T19:30:08.552Z,54.20
2017-08-24T19:32:36.078Z,54.50
2017-08-24T19:35:03.691Z,54.60
2017-08-24T19:37:31.277Z,54.30
2017-08-24T19:39:58.888Z,55.00
2017-08-24T19:42:26.537Z,55.10
2017-08-24T19:44:54.133Z,55.50
2017-08-24T19:47:21.862Z,55.70
2017-08-24T19:49:49.484Z,56.70
2017-08-24T19:52:17.056Z,57.50
2017-08-24T19:54:45.417Z,57.50
2017-08-24T19:57:13.006Z,57.50
2017-08-24T19:59:40.613Z,57.50
2017-08-24T20:02:08.225Z,59.30
2017-08-24T20:04:35.851Z,59.60
2017-08-24T20:07:03.422Z,60.80
2017-08-24T20:09:31.050Z,61.40
2017-08-24T20:11:58.639Z,61.60
2017-08-24T20:14:26.258Z,62.60
2017-08-24T20:16:53.908Z,61.60
2017-08-24T20:19:21.468Z,64.10
2017-08-24T20:21:48.997Z,63.10
2017-08-24T20:24:16.611Z,62.40
2017-08-24T20:26:44.144Z,63.00
2017-08-24T20:29:11.656Z,63.40
2017-08-24T20:31:39.184Z,63.20
2017-08-24T20:34:06.690Z,63.40
2017-08-24T20:36:34.221Z,63.40
2017-08-24T20:39:01.734Z,63.80
2017-08-24T20:41:29.287Z,63.80
2017-08-24T20:43:56.879Z,63.50
2017-08-24T20:46:24.414Z,63.70
2017-08-24T20:48:51.928Z,63.70
2017-08-24T20:51:19.461Z,64.00
2017-08-24T20:53:46.972Z,63.60
2017-08-24T20:56:14.512Z,63.80
2017-08-24T20:58:42.029Z,63.60
2017-08-24T21:01:09.671Z,63.30
2017-08-24T21:03:37.189Z,64.20
2017-08-24T21:06:04.718Z,64.90
2017-08-24T21:08:32.225Z,65.60
2017-08-24T21:10:59.748Z,65.80
2017-08-24T21:13:27.287Z,66.00
2017-08-24T21:15:54.825Z,65.80
2017-08-24T21:18:22.357Z,65.80
2017-08-24T21:20:50.852Z,66.80
2017-08-24T21:23:18.390Z,66.80
2017-08-24T21:25:45.900Z,67.20
2017-08-24T21:28:13.430Z,66.90
2017-08-24T21:30:40.933Z,67.30
2017-08-24T21:33:08.458Z,67.60
2017-08-24T21:35:35.969Z,68.50
2017-08-24T21:38:03.489Z,68.00
2017-08-24T21:40:30.996Z,69.10
2017-08-24T21:42:58.556Z,70.30
2017-08-24T21:45:26.078Z,71.00
2017-08-24T21:47:53.621Z,70.80
2017-08-24T21:50:21.140Z,71.50
2017-08-24T21:52:48.664Z,72.50
2017-08-24T21:55:16.168Z,73.20
2017-08-24T21:57:43.697Z,73.00
2017-08-24T22:00:11.211Z,73.00
2017-08-24T22:02:38.744Z,73.80
2017-08-24T22:05:06.250Z,73.80
2017-08-24T22:07:33.796Z,74.10
2017-08-24T22:10:01.316Z,75.30
2017-08-24T22:12:28.846Z,75.70
2017-08-24T22:14:56.347Z,76.20
2017-08-24T22:17:23.884Z,77.80
2017-08-24T22:19:51.395Z,76.50
2017-08-24T22:22:18.918Z,77.00
2017-08-24T22:24:46.449Z,77.30
2017-08-24T22:27:13.951Z,77.30
2017-08-24T22:29:41.584Z,76.90
2017-08-24T22:32:09.097Z,77.00
2017-08-24T22:34:36.629Z,76.70
2017-08-24T22:37:04.149Z,77.70
2017-08-24T22:39:31.673Z,77.20
2017-08-24T22:41:59.185Z,77.80
2017-08-24T22:44:26.722Z,77.70
2017-08-24T22:46:54.235Z,78.10
2017-08-24T22:49:21.769Z,79.30
2017-08-24T22:51:49.297Z,79.70
2017-08-24T22:54:22.645Z,80.60
2017-08-24T22:56:55.893Z,80.70
2017-08-24T22:59:29.201Z,81.80
2017-08-24T23:02:02.345Z,83.20
2017-08-24T23:04:29.874Z,82.50
2017-08-24T23:06:57.385Z,81.10
2017-08-24T23:09:24.912Z,80.80
2017-08-24T23:11:52.423Z,81.60
2017-08-24T23:14:19.948Z,82.20
2017-08-24T23:16:47.450Z,83.00
2017-08-24T23:19:15.004Z,83.00
2017-08-24T23:21:42.512Z,83.60
2017-08-24T23:24:10.022Z,83.80
2017-08-24T23:26:37.567Z,84.70
2017-08-24T23:29:05.845Z,85.50
2017-08-24T23:31:33.368Z,85.40
2017-08-24T23:34:00.883Z,85.60
2017-08-24T23:36:28.408Z,84.70
2017-08-24T23:38:55.912Z,85.40
2017-08-24T23:41:23.451Z,84.80
2017-08-24T23:43:50.960Z,85.10
2017-08-24T23:46:18.486Z,85.80
2017-08-24T23:48:45.992Z,86.10
2017-08-24T23:51:13.517Z,86.40
2017-08-24T23:53:41.028Z,86.00
2017-08-24T23:56:08.568Z,86.70
2017-08-24T23:58:36.089Z,86.70
